createdAt,value
2019-02-23T00:00:33.052Z,-3.00
2019-02-23T00:03:00.134Z,-3.00
2019-02-23T00:05:27.444Z,-2.90
2019-02-23T00:07:54.692Z,-3.00
2019-02-23T00:10:21.956Z,-3.00
2019-02-23T00:12:49.243Z,-3.00
2019-02-23T00:15:16.865Z,-2.90
2019-02-23T00:17:44.119Z,-2.90
2019-02-23T00:20:11.272Z,-2.80
2019-02-23T00:22:38.581Z,-2.90
2019-02-23T00:25:05.824Z,-3.00
2019-02-23T00:27:32.974Z,-3.00
2019-02-23T00:30:00.338Z,-3.10
2019-02-23T00:32:27.602Z,-3.00
2019-02-23T00:34:54.748Z,-3.20
2019-02-23T00:37:22.021Z,-3.10
2019-02-23T00:39:49.176Z,-3.10
2019-02-23T00:42:16.356Z,-3.20
2019-02-23T00:44:43.525Z,-3.20
2019-02-23T00:47:10.796Z,-3.10
2019-02-23T00:49:38.066Z,-3.00
2019-02-23T00:52:05.237Z,-2.90
2019-02-23T00:54:32.388Z,-2.90
2019-02-23T00:56:59.658Z,-2.90
2019-02-23T00:59:26.948Z,-2.90
2019-02-23T01:01:54.352Z,-2.90
2019-02-23T01:04:21.633Z,-2.90
2019-02-23T01:06:48.776Z,-2.90
2019-02-23T01:09:16.059Z,-2.90
2019-02-23T01:11:43.297Z,-2.80
2019-02-23T01:14:10.567Z,-2.90
2019-02-23T01:16:37.657Z,-2.90
2019-02-23T01:19:04.899Z,-2.90
2019-02-23T01:21:32.098Z,-2.90
2019-02-23T01:23:59.373Z,-3.00
2019-02-23T01:26:26.637Z,-3.00
2019-02-23T01:28:53.879Z,-3.10
2019-02-23T01:31:21.031Z,-3.10
2019-02-23T01:33:48.104Z,-3.10
2019-02-23T01:36:15.364Z,-3.10
2019-02-23T01:38:42.424Z,-3.10
2019-02-23T01:41:09.468Z,-3.20
2019-02-23T01:43:36.671Z,-3.10
2019-02-23T01:46:03.815Z,-3.10
2019-02-23T01:48:30.963Z,-3.10
2019-02-23T01:50:58.264Z,-3.10
2019-02-23T01:53:25.534Z,-3.10
2019-02-23T01:55:52.735Z,-3.00
2019-02-23T01:58:20.000Z,-2.90
2019-02-23T02:00:47.243Z,-3.00
2019-02-23T02:03:14.437Z,-3.00
2019-02-23T02:05:41.765Z,-3.10
2019-02-23T02:08:09.035Z,-3.00
2019-02-23T02:10:36.353Z,-3.00
2019-02-23T02:13:03.600Z,-3.00
2019-02-23T02:15:30.957Z,-2.90
2019-02-23T02:17:58.265Z,-2.90
2019-02-23T02:20:25.336Z,-2.70
2019-02-23T02:22:52.580Z,-2.60
2019-02-23T02:25:19.884Z,-2.70
2019-02-23T02:27:47.136Z,-2.60
2019-02-23T02:30:14.392Z,-2.60
2019-02-23T02:32:41.766Z,-2.70
2019-02-23T02:35:09.734Z,-2.60
2019-02-23T02:37:36.981Z,-2.60
2019-02-23T02:40:05.869Z,-2.60
2019-02-23T02:42:33.135Z,-2.60
2019-02-23T02:45:00.345Z,-2.60
2019-02-23T02:47:27.480Z,-2.70
2019-02-23T02:49:54.731Z,-2.70
2019-02-23T02:52:22.071Z,-2.70
2019-02-23T02:54:49.229Z,-2.80
2019-02-23T02:57:16.467Z,-2.80
2019-02-23T02:59:43.740Z,-2.80
2019-02-23T03:02:10.994Z,-2.80
2019-02-23T03:04:38.259Z,-2.90
2019-02-23T03:07:05.534Z,-2.80
2019-02-23T03:09:32.785Z,-2.80
2019-02-23T03:12:00.000Z,-2.90
2019-02-23T03:14:27.245Z,-3.00
2019-02-23T03:16:54.501Z,-2.90
2019-02-23T03:19:21.731Z,-2.90
2019-02-23T03:21:48.964Z,-2.90
2019-02-23T03:24:16.116Z,-3.00
2019-02-23T03:26:43.406Z,-2.90
2019-02-23T03:29:10.567Z,-2.90
2019-02-23T03:31:37.771Z,-2.90
2019-02-23T03:34:05.044Z,-2.90
2019-02-23T03:36:32.161Z,-3.00
2019-02-23T03:38:59.429Z,-2.90
2019-02-23T03:41:26.569Z,-2.80
2019-02-23T03:43:53.865Z,-2.80
2019-02-23T03:46:21.008Z,-2.80
2019-02-23T03:48:48.154Z,-2.80
2019-02-23T03:51:15.449Z,-2.80
2019-02-23T03:53:42.601Z,-2.80
2019-02-23T03:56:09.663Z,-2.80
2019-02-23T03:58:36.859Z,-2.80
2019-02-23T04:01:04.015Z,-2.90
2019-02-23T04:03:31.266Z,-2.80
2019-02-23T04:05:58.568Z,-2.90
2019-02-23T04:08:25.724Z,-2.80
2019-02-23T04:10:52.971Z,-2.80
2019-02-23T04:13:20.247Z,-2.70
2019-02-23T04:15:47.486Z,-2.60
2019-02-23T04:18:14.689Z,-2.60
2019-02-23T04:20:41.929Z,-2.60
2019-02-23T04:23:08.979Z,-2.60
2019-02-23T04:25:36.201Z,-2.50
2019-02-23T04:28:03.467Z,-2.50
2019-02-23T04:30:30.726Z,-2.50
2019-02-23T04:32:57.889Z,-2.40
2019-02-23T04:35:24.969Z,-2.50
2019-02-23T04:37:52.269Z,-2.50
2019-02-23T04:40:19.441Z,-2.60
2019-02-23T04:42:46.688Z,-2.60
2019-02-23T04:45:13.856Z,-2.50
2019-02-23T04:47:41.103Z,-2.50
2019-02-23T04:50:09.408Z,-2.50
2019-02-23T04:52:36.546Z,-2.60
2019-02-23T04:55:05.284Z,-2.70
2019-02-23T04:57:32.543Z,-2.70
2019-02-23T04:59:59.591Z,-2.70
2019-02-23T05:02:26.861Z,-2.80
2019-02-23T05:04:54.019Z,-2.80
2019-02-23T05:07:21.170Z,-2.70
2019-02-23T05:09:48.373Z,-2.80
2019-02-23T05:12:15.418Z,-2.80
2019-02-23T05:14:42.469Z,-2.70
2019-02-23T05:17:09.743Z,-2.70
2019-02-23T05:19:36.945Z,-2.60
2019-02-23T05:22:04.205Z,-2.50
2019-02-23T05:24:31.448Z,-2.50
2019-02-23T05:26:58.634Z,-2.50
2019-02-23T05:29:26.021Z,-2.50
2019-02-23T05:31:53.167Z,-2.40
2019-02-23T05:34:20.308Z,-2.30
2019-02-23T05:36:47.693Z,-2.30
2019-02-23T05:39:17.695Z,-2.20
2019-02-23T05:41:43.989Z,-2.20
2019-02-23T05:44:11.191Z,-2.20
2019-02-23T05:46:38.333Z,-2.20
2019-02-23T05:49:05.640Z,-2.10
2019-02-23T05:51:38.608Z,-2.00
2019-02-23T05:54:01.913Z,-2.00
2019-02-23T05:56:29.029Z,-2.00
2019-02-23T05:58:56.113Z,-2.00
2019-02-23T06:01:23.396Z,-2.00
2019-02-23T06:03:50.522Z,-2.00
2019-02-23T06:06:17.763Z,-2.00
2019-02-23T06:08:45.027Z,-2.00
2019-02-23T06:11:12.296Z,-2.00
2019-02-23T06:13:39.459Z,-1.90
2019-02-23T06:16:06.820Z,-1.90
2019-02-23T06:18:34.239Z,-1.90
2019-02-23T06:21:01.501Z,-1.80
2019-02-23T06:23:28.761Z,-1.70
2019-02-23T06:25:55.944Z,-1.70
2019-02-23T06:28:23.152Z,-1.70
2019-02-23T06:30:50.401Z,-1.70
2019-02-23T06:33:17.603Z,-1.60
2019-02-23T06:35:45.149Z,-1.60
2019-02-23T06:38:12.420Z,-1.50
2019-02-23T06:40:39.471Z,-1.40
2019-02-23T06:43:06.663Z,-1.50
2019-02-23T06:45:34.021Z,-1.40
2019-02-23T06:48:01.239Z,-1.50
2019-02-23T06:50:28.397Z,-1.50
2019-02-23T06:52:55.600Z,-1.60
2019-02-23T06:55:22.739Z,-1.60
2019-02-23T06:57:49.905Z,-1.60
2019-02-23T07:00:17.214Z,-1.50
2019-02-23T07:02:44.541Z,-1.40
2019-02-23T07:05:11.708Z,-1.30
2019-02-23T07:07:38.895Z,-1.20
2019-02-23T07:10:12.460Z,-1.10
2019-02-23T07:12:39.620Z,-1.00
2019-02-23T07:15:08.445Z,-1.00
2019-02-23T07:17:35.752Z,-1.00
2019-02-23T07:20:04.099Z,-1.00
2019-02-23T07:22:33.619Z,-1.00
2019-02-23T07:25:00.354Z,-0.90
2019-02-23T07:27:27.728Z,-1.10
2019-02-23T07:29:54.910Z,-1.10
2019-02-23T07:32:22.162Z,-0.90
2019-02-23T07:34:49.501Z,-0.90
2019-02-23T07:37:16.784Z,-1.00
2019-02-23T07:39:43.909Z,-0.90
2019-02-23T07:42:11.089Z,-0.80
2019-02-23T07:44:38.401Z,-0.70
2019-02-23T07:47:05.689Z,-0.70
2019-02-23T07:49:32.953Z,-0.60
2019-02-23T07:52:00.215Z,-0.50
2019-02-23T07:54:27.475Z,-0.50
2019-02-23T07:56:54.529Z,-0.60
2019-02-23T07:59:21.804Z,-0.60
2019-02-23T08:01:49.081Z,-0.70
2019-02-23T08:04:16.268Z,-0.60
2019-02-23T08:06:43.592Z,-0.50
2019-02-23T08:09:11.452Z,-0.30
2019-02-23T08:11:38.815Z,-0.30
2019-02-23T08:14:06.124Z,-0.30
2019-02-23T08:16:33.284Z,-0.50
2019-02-23T08:19:00.540Z,-0.40
2019-02-23T08:21:27.699Z,-0.40
2019-02-23T08:23:54.853Z,-0.30
2019-02-23T08:26:22.169Z,-0.30
2019-02-23T08:28:49.315Z,-0.20
2019-02-23T08:31:16.457Z,-0.20
2019-02-23T08:33:43.667Z,-0.20
2019-02-23T08:36:10.956Z,-0.20
2019-02-23T08:38:38.227Z,-0.10
2019-02-23T08:41:05.960Z,0.10
2019-02-23T08:43:33.023Z,0.30
2019-02-23T08:46:00.268Z,0.20
2019-02-23T08:48:27.518Z,0.00
2019-02-23T08:50:54.770Z,0.00
2019-02-23T08:53:22.058Z,-0.10
2019-02-23T08:55:49.351Z,0.20
2019-02-23T08:58:16.513Z,0.40
2019-02-23T09:00:43.985Z,0.30
2019-02-23T09:03:11.229Z,0.20
2019-02-23T09:05:38.361Z,0.10
2019-02-23T09:08:05.472Z,0.10
2019-02-23T09:10:32.789Z,0.30
2019-02-23T09:13:00.105Z,0.40
2019-02-23T09:15:27.168Z,0.30
2019-02-23T09:17:54.528Z,0.40
2019-02-23T09:20:29.043Z,0.40
2019-02-23T09:22:59.795Z,0.10
2019-02-23T09:25:19.634Z,0.20
2019-02-23T09:27:46.910Z,0.30
2019-02-23T09:30:14.126Z,0.50
2019-02-23T09:32:41.720Z,0.50
2019-02-23T09:35:09.053Z,0.50
2019-02-23T09:37:36.252Z,0.50
2019-02-23T09:40:07.183Z,0.60
2019-02-23T09:42:34.426Z,0.80
2019-02-23T09:45:01.555Z,1.00
2019-02-23T09:47:28.880Z,1.00
2019-02-23T09:49:56.328Z,0.80
2019-02-23T09:52:23.554Z,0.90
2019-02-23T09:54:50.878Z,0.90
2019-02-23T09:57:18.201Z,0.60
2019-02-23T09:59:45.469Z,0.60
2019-02-23T10:02:12.765Z,0.70
2019-02-23T10:04:40.091Z,0.70
2019-02-23T10:07:07.440Z,0.60
2019-02-23T10:09:34.781Z,0.70
2019-02-23T10:12:02.056Z,0.60
2019-02-23T10:14:29.120Z,0.80
2019-02-23T10:16:56.449Z,0.90
2019-02-23T10:19:23.639Z,0.80
2019-02-23T10:21:50.885Z,1.00
2019-02-23T10:24:18.051Z,1.00
2019-02-23T10:26:45.208Z,1.10
2019-02-23T10:29:12.523Z,1.10
2019-02-23T10:31:39.767Z,1.20
2019-02-23T10:34:06.810Z,1.10
2019-02-23T10:36:33.884Z,1.00
2019-02-23T10:39:01.130Z,1.20
2019-02-23T10:41:28.301Z,1.20
2019-02-23T10:43:55.449Z,1.40
2019-02-23T10:46:22.757Z,1.40
2019-02-23T10:48:50.016Z,1.20
2019-02-23T10:51:17.165Z,1.20
2019-02-23T10:53:44.252Z,1.20
2019-02-23T10:56:11.497Z,1.10
2019-02-23T10:58:38.743Z,1.10
2019-02-23T11:01:07.062Z,1.00
2019-02-23T11:03:34.452Z,1.10
2019-02-23T11:06:01.552Z,1.10
2019-02-23T11:08:28.715Z,1.20
2019-02-23T11:10:56.031Z,1.30
2019-02-23T11:13:23.179Z,1.10
2019-02-23T11:15:50.340Z,1.30
2019-02-23T11:18:17.641Z,1.20
2019-02-23T11:20:44.937Z,1.10
2019-02-23T11:23:12.012Z,1.30
2019-02-23T11:25:39.152Z,1.30
2019-02-23T11:28:06.415Z,1.10
2019-02-23T11:30:33.683Z,1.10
2019-02-23T11:33:00.971Z,1.10
2019-02-23T11:35:28.108Z,1.10
2019-02-23T11:37:55.348Z,1.10
2019-02-23T11:40:23.589Z,1.20
2019-02-23T11:42:50.783Z,1.20
2019-02-23T11:45:18.051Z,1.30
2019-02-23T11:47:45.346Z,1.30
2019-02-23T11:50:12.828Z,1.50
2019-02-23T11:52:40.008Z,1.60
2019-02-23T11:55:07.348Z,1.50
2019-02-23T11:57:34.520Z,1.50
2019-02-23T12:00:02.983Z,1.60
2019-02-23T12:02:30.287Z,1.50
2019-02-23T12:04:57.535Z,1.50
2019-02-23T12:07:24.693Z,1.30
2019-02-23T12:09:51.881Z,1.20
2019-02-23T12:12:18.930Z,1.30
2019-02-23T12:14:46.172Z,1.30
2019-02-23T12:17:13.444Z,1.40
2019-02-23T12:19:40.631Z,1.50
2019-02-23T12:22:12.265Z,1.60
2019-02-23T12:24:36.917Z,1.60
2019-02-23T12:27:04.597Z,1.70
2019-02-23T12:29:31.712Z,1.50
2019-02-23T12:31:58.980Z,1.60
2019-02-23T12:34:26.141Z,1.70
2019-02-23T12:36:53.397Z,1.70
2019-02-23T12:39:20.681Z,1.60
2019-02-23T12:41:48.615Z,1.60
2019-02-23T12:44:15.760Z,1.60
2019-02-23T12:46:42.910Z,1.70
2019-02-23T12:49:10.123Z,1.80
2019-02-23T12:51:37.360Z,1.80
2019-02-23T12:54:04.715Z,1.90
2019-02-23T12:56:31.984Z,2.00
2019-02-23T12:59:00.283Z,1.90
2019-02-23T13:01:27.591Z,1.70
2019-02-23T13:03:54.751Z,1.90
2019-02-23T13:06:21.904Z,1.80
2019-02-23T13:09:14.606Z,1.60
2019-02-23T13:11:48.000Z,1.70
2019-02-23T13:14:33.823Z,1.80
2019-02-23T13:17:27.148Z,1.90
2019-02-23T13:20:14.684Z,1.80
2019-02-23T13:23:14.273Z,1.90
2019-02-23T13:25:54.270Z,2.10
2019-02-23T13:28:43.656Z,2.10
2019-02-23T13:31:23.484Z,1.80
2019-02-23T13:33:54.327Z,1.80
2019-02-23T13:36:31.351Z,2.00
2019-02-23T13:39:08.333Z,2.00
2019-02-23T13:41:42.317Z,2.10
2019-02-23T13:44:16.012Z,2.20
2019-02-23T13:46:46.886Z,2.00
2019-02-23T13:49:34.356Z,2.00
2019-02-23T13:52:10.864Z,2.00
2019-02-23T13:55:17.627Z,2.10
2019-02-23T13:57:57.164Z,2.30
2019-02-23T14:00:39.883Z,2.60
2019-02-23T14:03:30.492Z,2.80
2019-02-23T14:06:25.679Z,2.60
2019-02-23T14:09:29.677Z,2.80
2019-02-23T14:12:18.453Z,2.90
2019-02-23T14:15:22.359Z,2.90
2019-02-23T14:18:17.039Z,2.70
2019-02-23T14:21:10.576Z,2.70
2019-02-23T14:23:53.489Z,2.60
2019-02-23T14:26:33.530Z,2.80
2019-02-23T14:29:19.339Z,2.70
2019-02-23T14:31:53.239Z,2.70
2019-02-23T14:34:32.912Z,2.60
2019-02-23T14:37:12.432Z,2.40
2019-02-23T14:40:15.135Z,2.30
2019-02-23T14:43:01.275Z,2.20
2019-02-23T14:45:54.788Z,2.10
2019-02-23T14:48:28.739Z,2.10
2019-02-23T14:51:14.419Z,2.10
2019-02-23T14:54:02.023Z,2.10
2019-02-23T14:56:38.867Z,2.10
2019-02-23T14:59:24.640Z,2.00
2019-02-23T15:02:04.557Z,1.90
2019-02-23T15:04:47.315Z,1.70
2019-02-23T15:07:21.207Z,1.80
2019-02-23T15:10:16.353Z,1.80
2019-02-23T15:12:53.179Z,2.00
2019-02-23T15:15:45.094Z,1.90
2019-02-23T15:18:24.365Z,1.80
2019-02-23T15:21:17.944Z,1.70
2019-02-23T15:23:54.795Z,1.70
2019-02-23T15:26:52.985Z,1.50
2019-02-23T15:29:29.946Z,1.40
2019-02-23T15:32:09.920Z,1.30
2019-02-23T15:34:46.983Z,1.20
2019-02-23T15:37:23.596Z,1.20
2019-02-23T15:39:54.564Z,1.10
2019-02-23T15:42:31.231Z,1.20
2019-02-23T15:45:17.180Z,1.10
2019-02-23T15:47:56.875Z,1.00
2019-02-23T15:50:24.227Z,1.00
2019-02-23T15:52:51.627Z,1.00
2019-02-23T15:55:25.922Z,1.00
2019-02-23T15:57:47.901Z,1.70
2019-02-23T16:00:15.355Z,0.80
2019-02-23T16:02:42.526Z,0.80
2019-02-23T16:05:09.820Z,0.80
2019-02-23T16:07:36.983Z,0.70
2019-02-23T16:10:04.347Z,0.60
2019-02-23T16:12:31.629Z,0.60
2019-02-23T16:14:58.795Z,0.60
2019-02-23T16:17:25.971Z,0.60
2019-02-23T16:19:53.313Z,0.60
2019-02-23T16:22:20.497Z,0.50
2019-02-23T16:24:47.770Z,0.40
2019-02-23T16:27:15.059Z,0.50
2019-02-23T16:29:42.311Z,0.40
2019-02-23T16:32:09.491Z,0.40
2019-02-23T16:34:36.743Z,0.40
2019-02-23T16:37:03.996Z,0.30
2019-02-23T16:39:31.297Z,0.30
2019-02-23T16:41:58.439Z,0.30
2019-02-23T16:44:25.901Z,0.30
2019-02-23T16:46:53.174Z,0.30
2019-02-23T16:49:20.440Z,0.40
2019-02-23T16:51:47.587Z,0.40
2019-02-23T16:54:14.860Z,0.40
2019-02-23T16:56:42.183Z,0.40
2019-02-23T16:59:09.382Z,0.40
2019-02-23T17:01:36.705Z,0.40
2019-02-23T17:04:04.016Z,0.50
2019-02-23T17:06:32.839Z,0.50
2019-02-23T17:09:00.406Z,0.50
2019-02-23T17:11:27.589Z,0.50
2019-02-23T17:13:54.846Z,0.60
2019-02-23T17:16:22.463Z,0.60
2019-02-23T17:18:49.527Z,0.60
2019-02-23T17:21:16.745Z,0.60
2019-02-23T17:23:43.962Z,0.70
2019-02-23T17:26:11.309Z,0.70
2019-02-23T17:28:38.567Z,0.70
2019-02-23T17:31:05.737Z,0.70
2019-02-23T17:33:32.984Z,0.70
2019-02-23T17:36:00.168Z,0.80
2019-02-23T17:38:27.428Z,0.80
2019-02-23T17:40:54.523Z,0.80
2019-02-23T17:43:21.720Z,0.80
2019-02-23T17:45:48.917Z,0.80
2019-02-23T17:48:16.238Z,2.10
2019-02-23T17:50:43.453Z,0.80
2019-02-23T17:53:10.749Z,0.80
2019-02-23T17:55:38.022Z,0.80
2019-02-23T17:58:05.188Z,0.90
2019-02-23T18:00:32.512Z,0.90
2019-02-23T18:02:59.800Z,0.80
2019-02-23T18:05:28.464Z,0.80
2019-02-23T18:07:55.797Z,0.70
2019-02-23T18:10:23.152Z,0.70
2019-02-23T18:12:50.416Z,0.60
2019-02-23T18:15:17.738Z,0.60
2019-02-23T18:17:45.056Z,0.60
2019-02-23T18:20:12.701Z,0.70
2019-02-23T18:22:40.014Z,0.60
2019-02-23T18:25:08.120Z,0.50
2019-02-23T18:27:35.504Z,0.40
2019-02-23T18:30:10.690Z,0.50
2019-02-23T18:32:33.372Z,0.50
2019-02-23T18:35:00.915Z,0.40
2019-02-23T18:37:28.378Z,0.40
2019-02-23T18:39:55.685Z,0.40
2019-02-23T18:42:23.403Z,0.30
2019-02-23T18:44:50.767Z,0.30
2019-02-23T18:47:18.118Z,0.30
2019-02-23T18:49:45.470Z,0.30
2019-02-23T18:52:12.868Z,0.30
2019-02-23T18:54:40.153Z,0.20
2019-02-23T18:57:07.872Z,0.20
2019-02-23T18:59:35.185Z,0.10
2019-02-23T19:02:02.521Z,0.10
2019-02-23T19:04:29.865Z,0.20
2019-02-23T19:06:57.242Z,0.20
2019-02-23T19:09:24.586Z,0.20
2019-02-23T19:11:51.859Z,0.20
2019-02-23T19:14:19.267Z,0.20
2019-02-23T19:16:46.697Z,0.20
2019-02-23T19:19:16.040Z,0.20
2019-02-23T19:21:47.682Z,0.20
2019-02-23T19:24:15.263Z,0.20
2019-02-23T19:26:42.621Z,0.20
2019-02-23T19:29:09.876Z,0.20
2019-02-23T19:31:37.174Z,0.20
2019-02-23T19:34:04.391Z,0.20
2019-02-23T19:36:31.828Z,0.20
2019-02-23T19:38:59.299Z,0.20
2019-02-23T19:41:26.647Z,0.20
2019-02-23T19:43:53.819Z,0.20
2019-02-23T19:46:21.644Z,0.20
2019-02-23T19:48:48.909Z,0.20
2019-02-23T19:51:16.144Z,0.10
2019-02-23T19:53:43.492Z,0.10
2019-02-23T19:56:10.664Z,0.10
2019-02-23T19:58:37.955Z,0.10
2019-02-23T20:01:05.387Z,0.20
2019-02-23T20:03:32.775Z,0.20
2019-02-23T20:06:00.130Z,0.20
2019-02-23T20:08:27.471Z,0.20
2019-02-23T20:10:54.746Z,0.20
2019-02-23T20:13:22.101Z,0.30
2019-02-23T20:15:49.388Z,0.30
2019-02-23T20:18:16.786Z,0.30
2019-02-23T20:20:44.031Z,0.40
2019-02-23T20:23:11.780Z,0.40
2019-02-23T20:25:38.961Z,0.60
2019-02-23T20:28:06.184Z,0.60
2019-02-23T20:30:33.413Z,0.70
2019-02-23T20:33:00.744Z,0.80
2019-02-23T20:35:27.983Z,0.80
2019-02-23T20:37:55.454Z,0.90
2019-02-23T20:40:22.708Z,1.00
2019-02-23T20:42:49.920Z,1.00
2019-02-23T20:45:17.222Z,1.10
2019-02-23T20:47:46.216Z,1.00
2019-02-23T20:50:13.504Z,1.00
2019-02-23T20:52:40.844Z,1.10
2019-02-23T20:55:08.268Z,1.10
2019-02-23T20:57:35.467Z,1.10
2019-02-23T21:00:04.751Z,1.10
2019-02-23T21:02:32.039Z,1.10
2019-02-23T21:04:59.220Z,1.10
2019-02-23T21:07:26.511Z,1.10
2019-02-23T21:09:53.819Z,1.10
2019-02-23T21:12:21.216Z,2.20
2019-02-23T21:14:48.751Z,1.00
2019-02-23T21:17:16.296Z,1.00
2019-02-23T21:19:43.803Z,1.00
2019-02-23T21:22:11.019Z,1.00
2019-02-23T21:24:38.100Z,1.00
2019-02-23T21:27:12.824Z,1.10
2019-02-23T21:29:34.372Z,1.00
2019-02-23T21:32:01.587Z,1.00
2019-02-23T21:34:28.737Z,1.00
2019-02-23T21:36:55.806Z,1.00
2019-02-23T21:39:23.104Z,1.00
2019-02-23T21:41:50.370Z,1.10
2019-02-23T21:44:17.529Z,1.10
2019-02-23T21:46:44.791Z,1.10
2019-02-23T21:49:12.082Z,1.10
2019-02-23T21:51:39.392Z,1.10
2019-02-23T21:54:10.179Z,1.10
2019-02-23T21:56:35.696Z,1.20
2019-02-23T21:59:03.099Z,1.10
2019-02-23T22:01:30.192Z,1.10
2019-02-23T22:03:57.493Z,1.10
2019-02-23T22:06:24.661Z,1.10
2019-02-23T22:08:51.711Z,1.10
2019-02-23T22:11:18.884Z,1.10
2019-02-23T22:13:46.209Z,1.10
2019-02-23T22:16:13.482Z,1.00
2019-02-23T22:18:40.728Z,1.10
2019-02-23T22:21:08.039Z,1.10
2019-02-23T22:23:35.292Z,1.10
2019-02-23T22:26:02.450Z,1.10
2019-02-23T22:28:29.792Z,1.10
2019-02-23T22:30:57.112Z,1.10
2019-02-23T22:33:24.369Z,1.10
2019-02-23T22:35:51.594Z,1.10
2019-02-23T22:38:18.852Z,1.20
2019-02-23T22:40:46.108Z,1.10
2019-02-23T22:43:13.401Z,1.10
2019-02-23T22:45:40.693Z,1.10
2019-02-23T22:48:07.815Z,1.20
2019-02-23T22:50:35.836Z,1.20
2019-02-23T22:53:03.135Z,1.10
2019-02-23T22:55:30.329Z,1.10
2019-02-23T22:57:57.665Z,1.10
2019-02-23T23:00:26.709Z,1.10
2019-02-23T23:02:53.992Z,1.10
2019-02-23T23:05:21.277Z,1.10
2019-02-23T23:07:48.509Z,0.10
2019-02-23T23:10:15.800Z,1.10
2019-02-23T23:12:42.983Z,1.10
2019-02-23T23:15:10.305Z,1.10
2019-02-23T23:17:37.584Z,1.10
2019-02-23T23:20:06.735Z,1.10
2019-02-23T23:22:33.987Z,1.10
2019-02-23T23:25:01.252Z,1.20
2019-02-23T23:27:28.319Z,1.20
2019-02-23T23:29:55.588Z,1.20
2019-02-23T23:32:22.891Z,1.20
2019-02-23T23:34:50.173Z,1.20
2019-02-23T23:37:17.344Z,1.20
2019-02-23T23:39:44.640Z,1.20
2019-02-23T23:42:11.901Z,1.20
2019-02-23T23:44:39.088Z,1.20
2019-02-23T23:47:06.353Z,1.20
2019-02-23T23:49:33.404Z,1.20
2019-02-23T23:52:00.634Z,1.20
2019-02-23T23:54:27.885Z,1.20
2019-02-23T23:56:55.086Z,1.20
2019-02-23T23:59:22.403Z,1.10
